Latest Weather Observations for Mount Gellibrand

IDV60801

Issued at 4:12 pm EDT Monday 30 March 2020 (issued every 10 minutes, with the page automatically refreshed every 10 minutes)

About weather observations | Map of weather stations | Latest weather observations for VIC | Other Formats
Station Details ID: 090035 Name: MOUNT GELLIBRAND Lat: -38.23 Lon: 143.79 Height: 261.0 m
Data from the previous 72 hours. | See also: Recent months at Mount Gellibrand
Date/Time
EDT
Temp
°C
App
Temp
°C
Dew
Point
°C
Rel
Hum
%
Delta-T
°C
Wind Press
QNH
hPa
Press
MSL
hPa
Rain since
9am
mm
Dir  Spd
km/h
Gust
km/h
Spd
kts
Gust
kts
30/04:00pm 18.8 13.6 8.7 52 5.3 W 26 39 14 21 1012.9 1012.2 0.0
30/03:30pm 19.3 15.1 9.8 54 5.1 WSW 22 35 12 19 1013.0 1012.4 0.0
30/03:00pm 18.8 13.6 8.7 52 5.3 WNW 26 39 14 21 1013.0 1012.4 0.0
30/02:30pm 18.6 13.7 9.9 57 4.7 W 26 33 14 18 1013.2 1012.6 0.0
30/02:00pm 18.4 12.7 8.4 52 5.2 W 28 39 15 21 1013.4 1012.8 0.0
30/01:30pm 17.7 13.1 9.6 59 4.3 W 24 35 13 19 1013.7 1013.1 0.0
30/01:00pm 17.0 12.3 10.6 66 3.5 W 26 33 14 18 1013.7 1013.1 0.0
30/12:30pm 16.9 11.3 10.1 64 3.6 W 30 37 16 20 1013.5 1012.9 0.0
30/12:00pm 16.2 11.1 10.7 70 3.0 WNW 28 37 15 20 1013.4 1012.8 0.0
30/11:30am 16.5 11.8 10.6 68 3.2 WNW 26 33 14 18 1013.6 1013.0 0.0
30/11:00am 15.5 11.5 10.5 72 2.7 W 22 33 12 18 1013.7 1013.1 0.0
30/10:30am 14.0 11.3 13.4 96 0.3 WNW 20 26 11 14 1013.7 1013.1 0.0
30/10:00am 13.5 10.8 13.5 100 0.0 WNW 20 28 11 15 1013.5 1012.9 0.0
30/09:30am 12.9 10.0 12.9 100 0.0 WNW 20 26 11 14 1013.2 1012.6 0.0
30/09:00am 11.7 8.1 11.7 100 0.0 WNW 22 26 12 14 1012.7 1012.0 4.2
30/08:30am 11.1 8.2 11.1 100 0.0 NW 17 20 9 11 1012.4 1011.7 4.2
30/08:00am 11.3 7.9 11.3 100 0.0 WNW 20 26 11 14 1012.0 1011.3 4.2
30/07:30am 11.3 6.8 11.3 100 0.0 W 26 35 14 19 1011.6 1011.0 4.2
30/07:00am 10.8 5.8 10.8 100 0.0 WNW 28 35 15 19 1011.3 1010.7 4.2
30/06:30am 11.2 6.3 11.2 100 0.0 WNW 28 35 15 19 1011.2 1010.6 4.2
30/06:00am 11.4 7.3 11.4 100 0.0 WNW 24 30 13 16 1010.9 1010.3 4.2
30/05:30am 11.4 7.3 11.4 100 0.0 WNW 24 28 13 15 1010.8 1010.2 4.2
30/05:00am 12.2 8.3 12.2 100 0.0 WNW 24 32 13 17 1010.7 1010.1 4.2
30/04:30am 12.2 8.3 12.2 100 0.0 WNW 24 28 13 15 1010.7 1010.1 4.2
30/04:00am 12.2 9.3 12.2 100 0.0 WNW 19 22 10 12 1011.1 1010.5 4.2
30/03:30am 12.2 9.7 12.2 100 0.0 WNW 17 20 9 11 1011.4 1010.8 4.2
30/03:00am 12.6 10.9 12.6 100 0.0 NW 13 17 7 9 1011.9 1011.2 4.2
30/02:30am 12.3 11.3 12.3 100 0.0 NNW 9 11 5 6 1012.0 1011.3 4.2
30/02:00am 12.6 11.7 12.6 100 0.0 NW 9 13 5 7 1011.7 1011.1 4.2
30/01:30am 12.8 11.2 12.8 100 0.0 WNW 13 17 7 9 1011.7 1011.1 4.2
30/01:00am 12.8 10.8 12.8 100 0.0 W 15 19 8 10 1011.7 1011.1 4.2
30/12:30am 13.4 11.6 13.4 100 0.0 W 15 19 8 10 1011.7 1011.1 4.2
30/12:00am 13.8 11.4 13.8 100 0.0 WSW 19 22 10 12 1012.0 1011.3 4.2
 
Date/Time
EDT
Temp
°C
App
Temp
°C
Dew
Point
°C
Rel
Hum
%
Delta-T
°C
Wind Press
QNH
hPa
Press
MSL
hPa
Rain since
9am
mm
Dir  Spd
km/h
Gust
km/h
Spd
kts
Gust
kts
29/11:30pm 14.4 13.7 14.4 100 0.0 W 11 15 6 8 1012.2 1011.5 4.2
29/11:00pm 14.9 12.8 14.7 99 0.1 WSW 19 26 10 14 1012.1 1011.4 4.2
29/10:30pm 14.9 13.5 14.4 97 0.3 WSW 15 17 8 9 1011.9 1011.2 4.2
29/10:00pm 15.0 11.7 13.9 93 0.6 SW 24 32 13 17 1011.3 1010.7 4.2
29/09:30pm 15.4 11.8 14.1 92 0.7 SW 26 32 14 17 1010.7 1010.1 4.2
29/09:00pm 15.3 12.7 15.0 98 0.2 SSW 22 26 12 14 1010.6 1010.0 4.2
29/08:30pm 15.8 12.7 15.5 98 0.2 SSW 26 32 14 17 1010.0 1009.4 4.2
29/08:00pm 17.0 14.0 15.9 93 0.7 SSW 26 33 14 18 1009.6 1008.9 4.2
29/07:30pm 19.8 17.0 14.4 71 3.2 SW 22 28 12 15 1009.1 1008.4 4.2
29/07:00pm 22.4 16.1 11.2 49 6.3 WNW 35 43 19 23 1008.3 1007.6 4.2
29/06:30pm 24.0 17.1 10.3 42 7.6 WNW 37 46 20 25 1007.9 1007.2 4.2
29/06:27pm 24.2 17.4 10.5 42 7.7 WNW 37 46 20 25 1007.7 1007.1 4.2
29/06:00pm 23.5 16.9 11.5 47 6.8 NW 37 46 20 25 1007.3 1006.7 4.2
29/05:30pm 24.2 16.4 11.2 44 7.4 NNW 43 54 23 29 1006.6 1006.0 4.2
29/05:00pm 24.9 17.5 12.5 46 7.2 NW 43 56 23 30 1006.7 1006.1 4.2
29/04:37pm 24.3 16.9 12.9 49 6.7 NW 44 65 24 35 1006.7 1006.1 4.2
29/04:30pm 23.8 17.5 13.6 52 6.0 NNW 39 56 21 30 1006.8 1006.2 4.2
29/04:00pm 22.1 18.1 16.6 71 3.4 NNW 33 46 18 25 1007.7 1007.1 4.2
29/03:30pm 19.2 17.9 19.0 99 0.1 N 24 32 13 17 1007.9 1007.2 4.2
29/03:00pm 17.1 13.8 17.1 100 0.0 N 30 35 16 19 1008.0 1007.3 4.2
29/02:30pm 16.3 11.4 16.3 100 0.0 N 37 46 20 25 1008.6 1007.9 4.2
29/02:00pm 16.3 9.7 16.3 100 0.0 N 46 56 25 30 1008.9 1008.2 3.6
29/01:30pm 16.2 11.6 16.2 100 0.0 NNW 35 43 19 23 1010.0 1009.4 2.6
29/01:00pm 16.5 9.2 16.5 100 0.0 NW 50 74 27 40 1010.7 1010.1 1.2
29/12:39pm 19.0 9.9 14.7 76 2.5 NW 56 76 30 41 1010.5 1009.9 0.0
29/12:30pm 22.5 11.9 11.9 51 6.0 NW 59 76 32 41 1009.8 1009.2 0.0
29/12:20pm 22.8 14.7 12.1 51 6.1 NNW 46 65 25 35 1009.8 1009.2 0.0
29/12:00pm 22.3 13.0 12.0 52 5.9 NNW 52 65 28 35 1009.7 1009.1 0.0
29/11:30am 23.0 13.7 12.0 50 6.3 N 52 67 28 36 1009.3 1008.6 0.0
29/11:00am 23.8 15.7 12.1 48 6.7 N 46 56 25 30 1009.7 1009.1 0.0
29/10:30am 22.6 14.1 12.0 51 6.1 N 48 63 26 34 1009.8 1009.2 0.0
29/10:00am 22.0 12.9 11.4 51 6.0 N 50 63 27 34 1010.0 1009.4 0.0
29/09:30am 21.2 12.5 11.2 53 5.6 N 48 59 26 32 1010.3 1009.7 0.0
29/09:00am 21.0 12.5 10.8 52 5.7 N 46 56 25 30 1010.4 1009.8 0.0
29/08:30am 20.1 11.1 10.2 53 5.4 N 48 59 26 32 1010.4 1009.8 0.0
29/08:00am 19.8 11.1 10.0 53 5.3 N 46 56 25 30 1010.4 1009.8 0.0
29/07:30am 19.8 10.9 9.1 50 5.7 N 46 56 25 30 1010.5 1009.9 0.0
29/07:00am 19.6 10.5 8.3 48 5.9 N 46 57 25 31 1010.6 1010.0 0.0
29/06:30am 19.8 10.5 7.5 45 6.4 N 46 54 25 29 1010.5 1009.9 0.0
29/06:00am 20.8 11.0 7.1 41 7.1 N 48 61 26 33 1010.3 1009.7 0.0
29/05:30am 20.8 13.8 6.7 40 7.2 NNE 33 50 18 27 1010.9 1010.3 0.0
29/05:26am 20.7 14.6 6.6 40 7.2 NNE 28 50 15 27 1010.9 1010.3 0.0
29/05:00am 20.7 14.2 6.6 40 7.2 NNE 30 37 16 20 1011.3 1010.7 0.0
29/04:30am 20.4 13.0 6.7 41 7.0 N 35 44 19 24 1011.2 1010.6 0.0
29/04:00am 20.2 14.2 7.2 43 6.7 N 28 37 15 20 1011.7 1011.1 0.0
29/03:30am 19.5 14.7 7.3 45 6.3 NNE 22 32 12 17 1012.2 1011.5 0.0
29/03:00am 19.5 14.3 7.3 45 6.3 NNE 24 26 13 14 1012.5 1011.8 0.0
29/02:30am 19.9 14.4 7.6 45 6.4 NNE 26 39 14 21 1012.8 1012.1 0.0
29/02:00am 19.5 14.5 7.9 47 6.0 NNE 24 28 13 15 1013.0 1012.4 0.0
29/01:30am 20.0 14.6 8.0 46 6.3 NNE 26 32 14 17 1013.2 1012.6 0.0
29/01:00am 19.8 13.8 8.8 49 5.8 NNE 30 35 16 19 1013.4 1012.8 0.0
29/12:30am 19.4 14.3 9.3 52 5.4 NNE 26 32 14 17 1013.8 1013.2 0.0
29/12:00am 19.4 14.4 9.6 53 5.3 NNE 26 28 14 15 1014.2 1013.6 0.0
 
Date/Time
EDT
Temp
°C
App
Temp
°C
Dew
Point
°C
Rel
Hum
%
Delta-T
°C
Wind Press
QNH
hPa
Press
MSL
hPa
Rain since
9am
mm
Dir  Spd
km/h
Gust
km/h
Spd
kts
Gust
kts
28/11:30pm 19.2 13.9 9.9 55 5.0 NNE 28 32 15 17 1014.5 1013.9 0.0
28/11:00pm 19.5 13.9 10.2 55 5.1 NE 30 33 16 18 1014.7 1014.1 0.0
28/10:30pm 20.0 14.4 10.1 53 5.4 NNE 30 33 16 18 1014.9 1014.3 0.0
28/10:00pm 20.4 14.4 10.2 52 5.6 NNE 32 37 17 20 1015.1 1014.5 0.0
28/09:30pm 20.9 15.3 10.1 50 5.9 NNE 30 35 16 19 1015.2 1014.6 0.0
28/09:00pm 21.4 15.8 10.3 49 6.1 NNE 30 35 16 19 1015.2 1014.6 0.0
28/08:30pm 22.2 16.9 9.7 45 6.8 NNE 28 32 15 17 1015.1 1014.5 0.0
28/08:00pm 23.1 17.8 9.8 43 7.3 NNE 28 33 15 18 1015.0 1014.4 0.0
28/07:30pm 23.6 17.9 9.9 42 7.6 N 30 39 16 21 1015.0 1014.4 0.0
28/07:00pm 24.5 16.7 9.6 39 8.2 N 41 48 22 26 1014.8 1014.2 0.0
28/06:30pm 25.3 18.3 10.0 38 8.5 N 37 46 20 25 1014.8 1014.2 0.0
28/06:00pm 26.1 18.8 10.3 37 8.9 N 39 50 21 27 1014.9 1014.3 0.0
28/05:30pm 26.4 19.3 9.7 35 9.3 N 37 50 20 27 1014.9 1014.3 0.0
28/05:00pm 27.0 18.3 9.8 34 9.7 N 46 57 25 31 1015.0 1014.4 0.0
28/04:30pm 28.3 20.2 10.0 32 10.4 N 43 54 23 29 1015.3 1014.7 0.0
28/04:00pm 27.8 20.5 10.1 33 10.0 N 39 50 21 27 1015.6 1015.0 0.0
28/03:30pm 26.1 19.6 10.3 37 8.9 N 35 48 19 26 1016.1 1015.4 0.0
28/03:00pm 27.5 20.6 10.2 34 9.8 NNW 37 46 20 25 1016.4 1015.8 0.0
28/02:30pm 26.5 19.8 9.8 35 9.4 NNW 35 50 19 27 1016.9 1016.3 0.0
28/02:00pm 28.3 21.1 10.5 33 10.2 N 39 50 21 27 1017.0 1016.4 0.0
28/01:30pm 27.8 20.5 11.4 36 9.5 NNW 41 54 22 29 1017.5 1016.9 0.0
28/01:00pm 27.0 19.6 11.1 37 9.1 NNW 41 52 22 28 1018.1 1017.5 0.0
28/12:49pm 27.9 21.7 11.5 36 9.5 N 35 50 19 27 1018.3 1017.7 0.0
28/12:30pm 26.9 22.7 11.0 37 9.1 NNW 24 30 13 16 1018.9 1018.3 0.0
28/12:00pm 26.0 21.4 9.8 36 9.0 N 24 33 13 18 1019.4 1018.8 0.0
28/11:30am 24.4 22.3 11.0 43 7.6 N 13 20 7 11 1020.0 1019.4 0.0
28/11:00am 21.7 20.5 11.7 53 5.6 N 9 15 5 8 1020.3 1019.7 0.0
28/10:30am 20.0 18.2 11.0 56 5.0 N 11 17 6 9 1020.3 1019.7 0.0
28/10:00am 19.0 16.6 10.0 56 4.8 NNE 13 19 7 10 1020.3 1019.7 0.0
28/09:30am 18.0 14.8 9.9 59 4.3 NNE 17 22 9 12 1020.3 1019.7 0.0
28/09:00am 16.8 13.6 10.0 64 3.6 NNE 17 19 9 10 1020.3 1019.7 0.0
28/08:30am 14.9 12.5 11.5 80 1.8 NE 15 17 8 9 1020.3 1019.7 0.0
28/08:00am 14.2 11.5 11.7 85 1.4 NNE 17 19 9 10 1020.3 1019.7 0.0
28/07:30am 13.8 11.0 11.5 86 1.2 NE 17 19 9 10 1020.2 1019.6 0.0
28/07:00am 14.1 11.4 11.6 85 1.4 NE 17 19 9 10 1020.2 1019.6 0.0
28/06:30am 14.3 11.5 12.7 90 0.9 NE 19 28 10 15 1020.2 1019.6 0.0
28/06:00am 14.3 11.4 12.2 87 1.1 NE 19 26 10 14 1020.2 1019.6 0.0
28/05:30am 14.4 12.2 14.4 100 0.0 NE 19 26 10 14 1020.3 1019.7 0.0
28/05:00am 14.1 11.2 14.1 100 0.0 NE 22 26 12 14 1020.2 1019.6 0.0
28/04:30am 13.9 11.5 13.9 100 0.0 NE 19 24 10 13 1020.2 1019.6 0.0
28/04:00am 14.6 12.5 14.6 100 0.0 NE 19 22 10 12 1020.3 1019.7 0.0
28/03:30am 14.6 12.9 14.6 100 0.0 NE 17 20 9 11 1020.6 1020.0 0.0
28/03:00am 17.2 16.3 16.9 98 0.2 NNE 17 24 9 13 1020.8 1020.2 0.0
28/02:30am 14.8 13.9 14.8 100 0.0 NE 13 15 7 8 1021.1 1020.5 0.0
28/02:00am 14.5 13.5 14.5 100 0.0 NE 13 15 7 8 1021.1 1020.5 0.0
28/01:30am 14.7 13.7 14.7 100 0.0 NE 13 15 7 8 1021.2 1020.6 0.0
28/01:00am 15.2 13.7 15.2 100 0.0 ENE 17 20 9 11 1021.3 1020.7 0.0
28/12:30am 15.2 13.1 15.2 100 0.0 ENE 20 22 11 12 1021.3 1020.7 0.0
28/12:00am 14.8 12.7 14.8 100 0.0 ENE 19 20 10 11 1021.5 1020.9 0.0
 
Date/Time
EDT
Temp
°C
App
Temp
°C
Dew
Point
°C
Rel
Hum
%
Delta-T
°C
Wind Press
QNH
hPa
Press
MSL
hPa
Rain since
9am
mm
Dir  Spd
km/h
Gust
km/h
Spd
kts
Gust
kts
27/11:30pm 14.6 12.5 14.6 100 0.0 E 19 22 10 12 1021.6 1021.0 0.0
27/11:00pm 14.3 11.9 14.3 100 0.0 E 20 24 11 13 1021.8 1021.2 0.0
27/10:30pm 14.4 11.6 14.4 100 0.0 E 22 26 12 14 1021.9 1021.3 0.0
27/10:00pm 14.4 12.0 14.4 100 0.0 E 20 26 11 14 1022.0 1021.4 0.0
27/09:30pm 14.2 11.7 14.2 100 0.0 E 20 26 11 14 1021.9 1021.3 0.0
27/09:00pm 14.5 11.8 14.5 100 0.0 E 22 26 12 14 1021.8 1021.2 0.0
27/08:30pm 14.9 12.8 14.6 98 0.2 E 19 22 10 12 1021.6 1021.0 0.0
27/08:00pm 15.5 13.2 14.0 91 0.9 E 19 24 10 13 1021.4 1020.8 0.0
27/07:30pm 16.3 12.9 13.8 85 1.4 ESE 24 28 13 15 1021.4 1020.8 0.0
27/07:00pm 17.2 13.7 13.3 78 2.2 ESE 24 30 13 16 1021.3 1020.7 0.0
27/06:30pm 18.8 15.4 13.6 72 3.0 ESE 24 30 13 16 1021.2 1020.6 0.0
27/06:00pm 20.6 16.8 13.6 64 4.1 E 26 32 14 17 1021.1 1020.5 0.0
27/05:30pm 21.6 17.4 13.5 60 4.7 E 28 33 15 18 1021.3 1020.7 0.0
27/05:00pm 23.5 19.4 13.9 55 5.7 E 28 32 15 17 1021.4 1020.8 0.0
27/04:30pm 22.3 18.5 13.6 58 5.1 E 26 32 14 17 1021.6 1021.0 0.0

Other formats

Comma delimited format used in spreadsheet applications
http://www.bom.gov.au/fwo/IDV60801/IDV60801.95845.axf

JavaScript Object Notation format (JSON) in row-major order
http://www.bom.gov.au/fwo/IDV60801/IDV60801.95845.json

Data quality

Most of these data are generated automatically and are frequently updated. Quality checks on data are not normally performed. It is possible for incorrect values to appear. Refer to information at About Latest Weather Observations and please check the disclaimer before using these data.